Time;durP1;ratioP1;P1;durP2;ratioP2;P2;SDS_P1;SDS_P2;PMS_P1;PMS_P2;Temp;Humidity;BMP_temperature;BMP_pressure;BME280_temperature;BME280_humidity;BME280_pressure;Samples;Min_cycle;Max_cycle;Signal;HPM_P1;HPM_P2
2022/01/17 00:01:11;;;;;;;62.27;27.67;;;;;;;0.59;95.60;100152.25;5057670;28;20204;-65
2022/01/17 00:03:38;;;;;;;74.50;29.47;;;;;;;0.59;95.38;100152.25;5061345;28;20205;-65
2022/01/17 00:06:05;;;;;;;61.13;26.80;;;;;;;0.55;95.14;100150.50;5068079;28;20216;-65
2022/01/17 00:08:33;;;;;;;43.80;23.03;;;;;;;0.47;95.46;100140.25;5062063;28;20226;-65
2022/01/17 00:11:02;;;;;;;42.63;23.70;;;;;;;0.47;95.52;100151.19;5070526;28;20196;-65
2022/01/17 00:13:29;;;;;;;48.63;23.57;;;;;;;0.48;95.75;100147.84;5052334;28;20550;-65
2022/01/17 00:16:03;;;;;;;48.87;25.77;;;;;;;0.49;95.67;100154.59;5066388;28;20692;-65
2022/01/17 00:19:03;;;;;;;47.57;25.97;;;;;;;0.45;95.68;100154.50;5070972;28;20211;-65
2022/01/17 00:21:28;;;;;;;46.33;24.07;;;;;;;0.44;95.72;100160.34;5062137;28;20545;-65
2022/01/17 00:23:57;;;;;;;45.03;23.43;;;;;;;0.42;95.50;100167.06;5058652;28;20201;-65
2022/01/17 00:26:26;;;;;;;46.13;22.23;;;;;;;0.39;95.72;100172.84;5069962;28;20203;-65
2022/01/17 00:28:53;;;;;;;41.27;22.27;;;;;;;0.35;95.76;100160.16;5059112;28;20208;-67
2022/01/17 00:31:19;;;;;;;41.47;22.80;;;;;;;0.33;95.93;100156.72;5062962;28;20201;-66
2022/01/17 00:33:46;;;;;;;41.07;22.00;;;;;;;0.31;96.04;100153.31;5055836;28;20271;-66
2022/01/17 00:36:13;;;;;;;45.30;24.60;;;;;;;0.23;95.97;100139.69;5068871;28;20200;-66
2022/01/17 00:38:40;;;;;;;50.73;22.90;;;;;;;0.23;95.91;100139.69;5064208;28;20207;-66
2022/01/17 00:41:06;;;;;;;46.47;22.00;;;;;;;0.25;96.23;100143.09;5065425;28;20200;-65
2022/01/17 00:43:35;;;;;;;46.47;23.17;;;;;;;0.13;96.23;100137.78;5063307;28;20196;-66
2022/01/17 00:46:02;;;;;;;41.90;21.93;;;;;;;0.15;96.80;100141.19;5062325;28;20189;-66
2022/01/17 00:48:29;;;;;;;44.83;22.70;;;;;;;0.12;96.98;100136.06;5068567;28;20204;-65
2022/01/17 00:50:56;;;;;;;44.37;22.53;;;;;;;0.08;97.10;100129.25;5059474;28;20290;-66
2022/01/17 00:53:23;;;;;;;47.77;22.87;;;;;;;0.03;97.25;100140.91;5065745;28;20196;-66
2022/01/17 00:55:50;;;;;;;45.30;24.43;;;;;;;-0.03;97.41;100141.59;5060317;28;20683;-66
2022/01/17 00:58:16;;;;;;;40.63;21.73;;;;;;;-0.09;98.16;100142.31;5069025;28;20212;-66
2022/01/17 01:00:45;;;;;;;46.20;22.07;;;;;;;-0.12;98.54;100131.28;5064182;28;20204;-66
2022/01/17 01:03:12;;;;;;;40.87;21.03;;;;;;;-0.15;98.90;100129.56;5067565;28;20212;-66
2022/01/17 01:05:39;;;;;;;38.40;21.13;;;;;;;-0.13;99.27;100122.88;5064511;28;20203;-66
2022/01/17 01:08:06;;;;;;;34.20;19.33;;;;;;;-0.26;99.11;100098.22;5019537;28;1174442;-65
2022/01/17 01:10:33;;;;;;;41.17;19.53;;;;;;;-0.14;99.21;100108.59;5070160;28;20692;-66
2022/01/17 01:13:00;;;;;;;33.50;20.97;;;;;;;-0.10;99.22;100110.34;5060556;28;20204;-63
2022/01/17 01:15:45;;;;;;;36.90;19.90;;;;;;;-0.10;99.09;100120.44;5069646;28;20227;-63
2022/01/17 01:18:17;;;;;;;44.90;20.83;;;;;;;-0.14;98.92;100087.59;5070184;28;20549;-63
2022/01/17 01:28:57;;;;;;;38.57;18.93;;;;;;;-0.11;98.13;100080.09;5059445;28;20707;-64
2022/01/17 01:31:37;;;;;;;35.47;19.20;;;;;;;-0.14;97.92;100078.38;5068674;28;20192;-63
2022/01/17 01:34:07;;;;;;;37.27;19.77;;;;;;;-0.15;97.54;100070.75;5064273;28;20222;-63
2022/01/17 01:36:34;;;;;;;39.13;20.63;;;;;;;-0.17;97.41;100067.34;5067962;28;20571;-64
2022/01/17 01:39:02;;;;;;;36.07;20.17;;;;;;;-0.19;97.24;100063.94;5068657;28;20206;-63
2022/01/17 01:41:28;;;;;;;37.93;19.87;;;;;;;-0.20;97.38;100068.16;5063501;28;20222;-64
2022/01/17 01:43:55;;;;;;;32.67;19.03;;;;;;;-0.24;97.33;100056.28;5057952;28;20255;-63
2022/01/17 01:46:23;;;;;;;29.30;17.77;;;;;;;-0.25;97.13;100059.63;5068889;28;20202;-63
2022/01/17 01:48:50;;;;;;;32.00;18.37;;;;;;;-0.25;96.97;100062.13;5066670;28;20196;-63
2022/01/17 01:51:20;;;;;;;31.40;19.00;;;;;;;-0.28;97.03;100054.50;5060102;28;20200;-63
2022/01/17 01:53:47;;;;;;;33.20;18.40;;;;;;;-0.30;97.37;100050.25;5070446;28;20219;-66
2022/01/17 01:56:14;;;;;;;34.80;17.40;;;;;;;-0.31;97.34;100049.41;5061818;28;20219;-66
2022/01/17 01:58:41;;;;;;;34.13;18.00;;;;;;;-0.38;97.44;100032.44;5066988;28;20208;-66
2022/01/17 02:01:08;;;;;;;26.20;16.93;;;;;;;-0.33;97.36;100030.03;5062991;28;20723;-66
2022/01/17 02:03:35;;;;;;;31.97;17.47;;;;;;;-0.39;97.62;100029.91;5061284;28;20697;-66
2022/01/17 02:06:02;;;;;;;26.87;16.90;;;;;;;-0.38;97.73;100029.91;5059673;28;20250;-66
2022/01/17 02:08:31;;;;;;;27.93;17.13;;;;;;;-0.40;97.84;100029.03;5065098;28;20654;-66
2022/01/17 02:10:58;;;;;;;25.80;17.57;;;;;;;-0.49;97.48;100008.69;5058978;28;20597;-66
2022/01/17 02:13:25;;;;;;;28.87;17.13;;;;;;;-0.41;97.35;100022.28;5068969;28;20496;-66
2022/01/17 02:15:52;;;;;;;31.40;17.33;;;;;;;-0.44;97.49;100027.25;5052167;28;20690;-66
2022/01/17 02:18:29;;;;;;;34.00;16.40;;;;;;;-0.47;97.69;100022.16;5054186;28;20246;-65
2022/01/17 02:21:12;;;;;;;23.60;14.93;;;;;;;-0.49;97.83;100013.72;5065807;28;20196;-65
2022/01/17 02:23:40;;;;;;;22.50;15.10;;;;;;;-0.52;97.60;100016.16;5062501;28;20192;-65
2022/01/17 02:26:07;;;;;;;24.93;15.33;;;;;;;-0.55;97.79;100013.56;5061266;28;20235;-65
2022/01/17 02:28:36;;;;;;;22.77;15.83;;;;;;;-0.56;97.72;100022.78;5067871;28;20695;-66
2022/01/17 02:31:04;;;;;;;28.07;16.13;;;;;;;-0.56;97.72;100016.91;5052846;28;20200;-65
2022/01/17 02:33:31;;;;;;;26.03;14.43;;;;;;;-0.58;97.58;100011.81;5062761;28;20706;-66
2022/01/17 02:35:59;;;;;;;29.23;14.60;;;;;;;-0.60;97.74;100012.59;5063160;28;20587;-65
2022/01/17 02:38:26;;;;;;;23.97;15.50;;;;;;;-0.64;97.67;100008.28;5063777;28;20204;-65
2022/01/17 02:40:54;;;;;;;22.57;14.47;;;;;;;-0.67;97.58;100015.78;5063298;28;20196;-66
2022/01/17 02:43:22;;;;;;;22.17;13.67;;;;;;;-0.70;97.86;100010.66;5055810;28;20205;-65
2022/01/17 02:48:36;;;;;;;16.97;13.73;;;;;;;-0.77;98.01;100011.31;5063079;28;20199;-66
2022/01/17 02:51:04;;;;;;;17.10;12.53;;;;;;;-0.94;98.72;99997.50;5071059;28;20203;-65
2022/01/17 02:53:32;;;;;;;21.63;13.83;;;;;;;-0.94;99.23;100007.56;5068901;28;20204;-65
2022/01/17 02:56:00;;;;;;;27.40;16.07;;;;;;;-0.85;99.44;100018.69;5069784;28;20314;-65
2022/01/17 02:58:29;;;;;;;29.07;16.53;;;;;;;-0.84;99.50;100019.56;5052130;28;20200;-65
2022/01/17 03:00:58;;;;;;;25.87;16.63;;;;;;;-0.95;99.54;100009.22;5069891;28;20200;-66
2022/01/17 03:03:27;;;;;;;23.57;14.03;;;;;;;-0.90;99.62;100025.28;5071019;28;20203;-65
2022/01/17 03:05:55;;;;;;;19.97;13.50;;;;;;;-0.89;99.46;100011.03;5059237;28;20280;-65
2022/01/17 03:08:25;;;;;;;21.93;13.40;;;;;;;-0.88;98.89;99998.50;5050809;28;20263;-65
2022/01/17 03:10:53;;;;;;;27.37;14.47;;;;;;;-0.92;98.71;99990.81;5050875;28;20196;-65
2022/01/17 03:13:25;;;;;;;22.77;14.33;;;;;;;-0.92;98.88;99996.72;5050870;28;20193;-65
2022/01/17 03:15:55;;;;;;;19.37;13.47;;;;;;;-0.96;98.72;99994.06;5050602;28;20208;-65
2022/01/17 03:18:22;;;;;;;22.70;13.00;;;;;;;-1.00;99.23;99988.09;5069478;28;20288;-65
2022/01/17 03:20:49;;;;;;;19.93;13.17;;;;;;;-1.01;99.23;100003.19;5070566;28;20199;-65
2022/01/17 03:23:17;;;;;;;18.07;12.67;;;;;;;-1.03;99.32;100004.81;5064861;28;20265;-65
2022/01/17 03:25:45;;;;;;;19.47;11.57;;;;;;;-1.04;99.46;99990.53;5057904;28;20577;-65
2022/01/17 03:28:12;;;;;;;22.97;12.40;;;;;;;-1.03;99.44;99982.16;5052898;28;20207;-66
2022/01/17 03:30:39;;;;;;;19.40;12.30;;;;;;;-1.15;99.58;99968.44;5052503;28;20196;-65
2022/01/17 03:33:09;;;;;;;20.17;12.37;;;;;;;-1.10;99.64;99976.94;5059070;28;20259;-65
2022/01/17 03:35:38;;;;;;;13.93;11.10;;;;;;;-1.11;99.82;99970.25;5061329;28;20300;-65
2022/01/17 03:38:05;;;;;;;14.23;11.23;;;;;;;-1.10;99.82;99971.91;5062413;28;20725;-65
2022/01/17 03:40:32;;;;;;;18.57;13.63;;;;;;;-1.10;99.71;99971.09;5061405;28;20196;-65
2022/01/17 03:43:01;;;;;;;12.83;11.57;;;;;;;-1.17;99.92;99955.00;5060194;28;20669;-65
2022/01/17 03:45:27;;;;;;;16.20;12.33;;;;;;;-1.13;99.86;99963.47;5055952;28;20224;-66
2022/01/17 03:47:54;;;;;;;16.23;11.43;;;;;;;-1.13;99.62;99971.03;5064258;28;20192;-66
2022/01/17 03:50:23;;;;;;;16.80;12.40;;;;;;;-1.16;99.53;99961.72;5063190;28;20592;-65
2022/01/17 03:52:51;;;;;;;18.23;13.17;;;;;;;-1.18;99.65;99953.28;5057706;28;20201;-66
2022/01/17 03:55:27;;;;;;;17.00;11.03;;;;;;;-1.18;99.76;99960.84;5061593;28;20310;-67
2022/01/17 03:57:54;;;;;;;17.27;12.50;;;;;;;-1.19;99.93;99950.72;5052835;28;20262;-65
2022/01/17 04:00:25;;;;;;;18.50;12.60;;;;;;;-1.19;99.75;99948.19;5064249;28;20200;-65
2022/01/17 04:02:53;;;;;;;17.87;13.93;;;;;;;-1.26;99.76;99934.63;5056366;28;20677;-66
2022/01/17 04:05:20;;;;;;;15.83;13.03;;;;;;;-1.21;99.93;99940.63;5056715;28;20582;-64
2022/01/17 04:07:48;;;;;;;18.23;12.67;;;;;;;-1.25;99.57;99936.31;5056830;28;20200;-64
2022/01/17 04:10:15;;;;;;;22.57;14.23;;;;;;;-1.22;99.80;99940.56;5058376;28;20192;-64
2022/01/17 04:12:44;;;;;;;20.90;12.90;;;;;;;-1.24;99.84;99943.06;5049970;28;20199;-65
2022/01/17 04:15:11;;;;;;;21.83;13.37;;;;;;;-1.32;100.00;99939.50;5058173;28;20219;-65
2022/01/17 04:17:42;;;;;;;26.77;13.13;;;;;;;-1.32;100.00;99944.53;5062575;28;20188;-65
2022/01/17 04:20:13;;;;;;;26.73;15.47;;;;;;;-1.36;100.00;99957.84;5059087;28;20689;-64
2022/01/17 04:22:44;;;;;;;27.90;16.67;;;;;;;-1.52;100.00;99929.75;5055498;28;20205;-64
2022/01/17 04:25:12;;;;;;;20.13;14.00;;;;;;;-1.51;100.00;99947.38;5049553;28;20196;-64
2022/01/17 04:27:39;;;;;;;19.37;13.13;;;;;;;-1.51;100.00;99957.44;5060907;28;20211;-65
2022/01/17 04:30:07;;;;;;;17.43;12.23;;;;;;;-1.59;100.00;99951.38;5066798;28;20568;-65
2022/01/17 04:32:35;;;;;;;17.67;11.57;;;;;;;-1.61;100.00;99951.31;5068747;28;20184;-65
2022/01/17 04:35:07;;;;;;;16.50;11.90;;;;;;;-1.61;100.00;99950.44;5061801;28;20200;-64
2022/01/17 04:37:33;;;;;;;12.33;10.53;;;;;;;-1.60;100.00;99950.50;5058646;28;20553;-65
2022/01/17 04:40:00;;;;;;;19.37;11.10;;;;;;;-1.58;100.00;99941.31;5065264;28;20200;-66
2022/01/17 04:42:28;;;;;;;20.93;14.10;;;;;;;-1.54;100.00;99947.28;5060947;28;20703;-66
2022/01/17 04:45:16;;;;;;;28.90;16.30;;;;;;;-1.51;100.00;99952.41;5069363;28;20200;-64
2022/01/17 04:47:45;;;;;;;33.70;17.67;;;;;;;-1.54;100.00;99931.34;5059872;28;20294;-65
2022/01/17 04:50:16;;;;;;;40.50;21.37;;;;;;;-1.46;100.00;99950.88;5067334;28;20196;-65
2022/01/17 04:52:43;;;;;;;30.07;15.20;;;;;;;-1.43;100.00;99957.66;5067805;28;20645;-65
2022/01/17 04:55:14;;;;;;;26.03;14.50;;;;;;;-1.48;100.00;99956.66;5070021;28;20712;-65
2022/01/17 04:57:41;;;;;;;29.67;19.03;;;;;;;-1.49;100.00;99970.91;5059225;28;20200;-65
2022/01/17 05:00:10;;;;;;;34.47;18.77;;;;;;;-1.50;100.00;99959.16;5065293;28;20211;-65
2022/01/17 05:02:38;;;;;;;38.33;18.87;;;;;;;-1.61;100.00;99941.25;5072096;28;20196;-65
2022/01/17 05:05:05;;;;;;;23.03;16.03;;;;;;;-1.50;100.00;99959.16;5072497;28;20691;-65
2022/01/17 05:07:34;;;;;;;27.30;15.77;;;;;;;-1.49;100.00;99958.34;5062444;28;20196;-66
2022/01/17 05:10:02;;;;;;;22.37;14.07;;;;;;;-1.51;100.00;99959.94;5057309;28;20240;-65
2022/01/17 05:12:29;;;;;;;16.73;11.60;;;;;;;-1.62;100.00;99939.56;5061890;28;20583;-65
2022/01/17 05:14:57;;;;;;;16.47;11.07;;;;;;;-1.52;100.00;99960.78;5061673;28;20284;-66
2022/01/17 05:20:08;;;;;;;16.53;11.63;;;;;;;-1.60;100.00;99957.19;5059928;28;20296;-65
2022/01/17 05:22:38;;;;;;;22.00;13.67;;;;;;;-1.65;99.97;99934.44;5059901;28;20669;-66
2022/01/17 05:25:08;;;;;;;17.03;12.53;;;;;;;-1.59;99.85;99943.81;5063156;28;20210;-65
2022/01/17 05:27:36;;;;;;;20.13;12.07;;;;;;;-1.66;99.75;99947.84;5062438;28;20193;-66
2022/01/17 05:30:09;;;;;;;23.67;13.97;;;;;;;-1.78;99.86;99934.94;5064824;28;20215;-65
2022/01/17 05:32:36;;;;;;;35.33;14.63;;;;;;;-1.70;100.00;99940.16;5063815;28;20216;-66
2022/01/17 05:35:04;;;;;;;21.17;13.63;;;;;;;-1.72;100.00;99942.63;5061766;28;20200;-65
2022/01/17 05:37:31;;;;;;;19.07;14.47;;;;;;;-1.71;100.00;99948.50;5063915;28;20624;-66
2022/01/17 05:39:59;;;;;;;27.17;15.57;;;;;;;-1.75;100.00;99932.50;5063814;28;20676;-65
2022/01/17 05:42:26;;;;;;;28.10;13.67;;;;;;;-1.69;100.00;99936.84;5062404;28;20207;-66
2022/01/17 05:44:54;;;;;;;31.13;13.63;;;;;;;-1.68;100.00;99943.56;5064557;28;20684;-66
2022/01/17 05:47:21;;;;;;;34.63;14.13;;;;;;;-1.70;100.00;99941.00;5058173;28;20228;-66
2022/01/17 05:49:48;;;;;;;19.93;13.30;;;;;;;-1.72;100.00;99934.25;5064942;28;20201;-66
2022/01/17 05:52:15;;;;;;;30.90;14.43;;;;;;;-1.71;100.00;99943.47;5060538;28;20200;-66
2022/01/17 05:54:43;;;;;;;22.67;14.00;;;;;;;-1.69;100.00;99936.84;5069180;28;20192;-66
2022/01/17 05:57:12;;;;;;;26.50;15.27;;;;;;;-1.70;100.00;99942.66;5061348;28;20215;-65
2022/01/17 05:59:39;;;;;;;34.53;15.67;;;;;;;-1.72;100.00;99936.75;5059249;28;20201;-66
2022/01/17 06:02:06;;;;;;;26.63;14.57;;;;;;;-1.71;100.00;99934.28;5060927;28;20223;-66
2022/01/17 06:04:32;;;;;;;25.00;14.20;;;;;;;-1.71;100.00;99935.94;5058818;28;20197;-66
2022/01/17 06:06:59;;;;;;;24.33;15.23;;;;;;;-1.71;100.00;99918.34;5052795;28;20204;-66
2022/01/17 06:09:26;;;;;;;26.80;13.70;;;;;;;-1.71;100.00;99910.78;5052834;28;20225;-66
2022/01/17 06:11:53;;;;;;;19.13;13.37;;;;;;;-1.71;100.00;99903.25;5069774;28;20806;-66
2022/01/17 06:14:21;;;;;;;25.07;14.07;;;;;;;-1.75;100.00;99912.41;5058259;28;20212;-66
2022/01/17 06:16:48;;;;;;;27.83;14.67;;;;;;;-1.84;100.00;99898.75;5065391;28;20224;-66
2022/01/17 06:19:15;;;;;;;23.10;14.07;;;;;;;-1.75;100.00;99924.09;5062910;28;20219;-66
2022/01/17 06:21:43;;;;;;;25.07;14.27;;;;;;;-1.74;100.00;99913.22;5066590;28;20671;-66
2022/01/17 06:24:11;;;;;;;19.87;13.73;;;;;;;-1.82;100.00;99904.66;5063903;28;20199;-66
2022/01/17 06:26:39;;;;;;;28.13;14.40;;;;;;;-1.74;100.00;99911.56;5066014;28;20200;-66
2022/01/17 06:29:07;;;;;;;21.77;13.80;;;;;;;-1.69;100.00;99906.69;5058872;28;20291;-66
2022/01/17 06:31:36;;;;;;;23.80;14.27;;;;;;;-1.79;100.00;99889.66;5062965;28;20561;-66
2022/01/17 06:34:03;;;;;;;33.90;16.17;;;;;;;-1.70;100.00;99910.00;5059284;28;20196;-65
2022/01/17 06:36:30;;;;;;;61.53;24.30;;;;;;;-1.78;100.00;99901.41;5056262;28;20219;-67
2022/01/17 06:38:58;;;;;;;75.67;28.27;;;;;;;-1.66;100.00;99906.75;5066600;28;20196;-67
2022/01/17 06:41:25;;;;;;;51.70;24.60;;;;;;;-1.66;100.00;99909.28;5063117;28;20191;-65
2022/01/17 06:43:52;;;;;;;30.53;19.17;;;;;;;-1.67;100.00;99907.56;5057154;28;20201;-65
2022/01/17 06:46:19;;;;;;;43.63;20.90;;;;;;;-1.79;100.00;99899.69;5061892;28;20200;-65
2022/01/17 06:48:47;;;;;;;43.37;20.10;;;;;;;-1.68;100.00;99908.38;5070035;28;20239;-65
2022/01/17 06:51:15;;;;;;;40.77;19.70;;;;;;;-1.68;100.00;99909.22;5055376;28;20693;-65
2022/01/17 06:53:42;;;;;;;50.17;24.10;;;;;;;-1.71;100.00;99888.16;5060548;28;20196;-65
2022/01/17 06:56:09;;;;;;;28.50;17.60;;;;;;;-1.58;100.00;99905.28;5063881;28;20207;-65
2022/01/17 06:58:36;;;;;;;28.17;15.83;;;;;;;-1.53;100.00;99900.38;5061960;28;20204;-65
2022/01/17 07:01:04;;;;;;;44.97;23.97;;;;;;;-1.62;100.00;99899.34;5068902;28;20231;-65
2022/01/17 07:03:30;;;;;;;68.30;25.77;;;;;;;-1.57;100.00;99901.97;5070997;28;20196;-64
2022/01/17 07:05:59;;;;;;;32.63;16.30;;;;;;;-1.55;100.00;99900.34;5064492;28;20197;-65
2022/01/17 07:08:26;;;;;;;28.70;15.27;;;;;;;-1.48;100.00;99887.13;5060609;28;20311;-64
2022/01/17 07:10:53;;;;;;;28.03;15.77;;;;;;;-1.42;100.00;99877.22;5065165;28;20196;-64
2022/01/17 07:13:20;;;;;;;45.30;17.63;;;;;;;-1.36;100.00;99882.41;5063477;28;20201;-64
2022/01/17 07:15:47;;;;;;;35.07;17.87;;;;;;;-1.30;100.00;99874.16;5060082;28;20251;-64
2022/01/17 07:18:14;;;;;;;27.47;16.27;;;;;;;-1.27;100.00;99874.25;5066109;28;20196;-64
2022/01/17 07:20:41;;;;;;;24.53;15.53;;;;;;;-1.25;100.00;99860.88;5057550;28;20248;-64
2022/01/17 07:23:10;;;;;;;21.03;14.50;;;;;;;-1.24;100.00;99857.56;5061762;28;20230;-64
2022/01/17 07:25:38;;;;;;;24.93;15.37;;;;;;;-1.23;100.00;99858.41;5061104;28;20281;-59
2022/01/17 07:28:09;;;;;;;23.73;13.37;;;;;;;-1.17;100.00;99866.97;5062753;28;20259;-59
2022/01/17 07:30:37;;;;;;;24.73;14.93;;;;;;;-1.12;100.00;99865.38;5060295;28;20792;-59
2022/01/17 07:33:05;;;;;;;82.47;39.37;;;;;;;-0.98;100.00;99879.97;5059129;28;20204;-64
2022/01/17 07:35:32;;;;;;;49.67;25.27;;;;;;;-0.89;100.00;99875.13;5056871;28;20204;-65
2022/01/17 07:37:59;;;;;;;48.37;26.80;;;;;;;-0.88;100.00;99846.66;5062329;28;20224;-65
2022/01/17 07:40:28;;;;;;;42.20;24.30;;;;;;;-0.76;100.00;99856.97;5066198;28;20196;-64
2022/01/17 07:42:54;;;;;;;54.47;28.33;;;;;;;-0.81;100.00;99838.41;5061928;28;20742;-65
2022/01/17 07:45:21;;;;;;;43.60;22.73;;;;;;;-0.70;100.00;99821.88;5061010;28;20204;-64
2022/01/17 07:48:09;;;;;;;61.33;28.10;;;;;;;-0.48;100.00;99818.97;5056151;28;20214;-64
2022/01/17 07:50:36;;;;;;;80.83;33.10;;;;;;;-0.39;100.00;99819.19;5056443;28;20687;-63
2022/01/17 07:53:03;;;;;;;86.23;37.90;;;;;;;-0.30;100.00;99826.91;5060829;28;20233;-62
2022/01/17 07:55:32;;;;;;;68.43;29.10;;;;;;;-0.20;100.00;99831.31;5062454;28;20792;-64
2022/01/17 07:57:58;;;;;;;36.10;19.63;;;;;;;-0.04;100.00;99848.44;5065490;28;20225;-64
2022/01/17 08:00:25;;;;;;;19.60;14.20;;;;;;;0.15;100.00;99884.06;5066035;28;20199;-64
2022/01/17 08:02:56;;;;;;;17.30;12.67;;;;;;;0.61;100.00;99886.59;5061696;28;20239;-62
2022/01/17 08:05:23;;;;;;;22.47;12.67;;;;;;;0.92;100.00;99877.84;5059001;28;20207;-62
2022/01/17 08:07:50;;;;;;;19.40;13.10;;;;;;;1.21;100.00;99873.25;5062830;28;20196;-63
2022/01/17 08:10:17;;;;;;;18.33;10.97;;;;;;;1.45;100.00;99876.16;5058993;28;20204;-63
2022/01/17 08:12:47;;;;;;;18.27;12.13;;;;;;;1.59;100.00;99874.63;5064349;28;20250;-64
2022/01/17 08:15:15;;;;;;;13.63;11.40;;;;;;;1.76;100.00;99878.22;5058064;28;20200;-64
2022/01/17 08:17:42;;;;;;;16.50;12.13;;;;;;;1.96;100.00;99897.03;5064966;28;20679;-63
2022/01/17 08:20:09;;;;;;;28.23;12.17;;;;;;;2.04;100.00;99910.59;5063830;28;20698;-64
2022/01/17 08:22:36;;;;;;;20.20;11.03;;;;;;;2.17;100.00;99951.19;5064656;28;20626;-63
2022/01/17 08:25:04;;;;;;;19.07;12.03;;;;;;;2.27;100.00;99975.78;5057404;28;20240;-64
2022/01/17 08:27:31;;;;;;;19.77;12.43;;;;;;;2.61;100.00;99985.47;5060920;28;20192;-64
2022/01/17 08:30:00;;;;;;;18.33;11.63;;;;;;;3.02;100.00;100004.47;5055319;28;20201;-63
2022/01/17 08:32:28;;;;;;;11.77;9.33;;;;;;;3.40;98.52;100009.00;5063030;28;20204;-64
2022/01/17 08:34:57;;;;;;;13.37;7.90;;;;;;;3.79;94.29;99956.06;5069720;28;20207;-64
2022/01/17 08:37:23;;;;;;;20.17;9.37;;;;;;;4.18;92.52;99933.44;5063364;28;20240;-64
2022/01/17 08:39:50;;;;;;;9.57;8.00;;;;;;;4.32;92.59;99943.66;5064613;28;20219;-64
2022/01/17 08:42:17;;;;;;;12.43;8.13;;;;;;;4.53;91.29;99922.53;5065177;28;20201;-66
2022/01/17 08:44:49;;;;;;;7.90;7.27;;;;;;;4.80;90.19;99922.59;5062704;28;20626;-66
2022/01/17 08:47:17;;;;;;;12.87;8.20;;;;;;;5.07;89.55;99901.47;5071295;28;20664;-66
2022/01/17 08:49:45;;;;;;;15.50;10.23;;;;;;;5.28;87.46;99876.03;5064799;28;20197;-67
2022/01/17 08:52:13;;;;;;;15.63;9.40;;;;;;;5.38;88.84;99867.53;5067847;28;20203;-67
2022/01/17 08:54:39;;;;;;;15.87;8.70;;;;;;;5.58;86.69;99890.38;5063456;28;20203;-66
2022/01/17 08:57:06;;;;;;;8.17;7.40;;;;;;;5.78;84.78;99886.09;5062739;28;20739;-66
2022/01/17 08:59:33;;;;;;;8.13;6.80;;;;;;;5.95;82.52;99832.59;5063190;28;20206;-67
2022/01/17 09:02:00;;;;;;;11.80;8.00;;;;;;;6.13;82.46;99841.00;5067064;28;20218;-67
2022/01/17 09:04:28;;;;;;;9.20;7.23;;;;;;;6.23;79.89;99827.38;5069401;28;20870;-66
2022/01/17 09:06:55;;;;;;;7.27;6.33;;;;;;;6.41;79.24;99836.59;5064391;28;20261;-67
2022/01/17 09:09:22;;;;;;;10.33;6.87;;;;;;;6.44;79.81;99835.72;5069463;28;20239;-67
2022/01/17 09:11:49;;;;;;;11.77;6.27;;;;;;;6.64;78.16;99818.59;5063771;28;20203;-67
2022/01/17 09:14:16;;;;;;;11.50;7.63;;;;;;;6.72;79.84;99799.84;5065867;28;20208;-67
2022/01/17 09:16:43;;;;;;;7.97;7.07;;;;;;;6.87;78.39;99801.44;5066711;28;20278;-67
2022/01/17 09:19:10;;;;;;;6.23;5.70;;;;;;;7.13;74.47;99804.59;5060027;28;20623;-67
2022/01/17 09:21:38;;;;;;;7.90;6.10;;;;;;;7.21;76.15;99796.84;5065637;28;20266;-67
2022/01/17 09:24:06;;;;;;;4.63;4.23;;;;;;;7.50;76.97;99816.94;5063437;28;20200;-67
2022/01/17 09:26:33;;;;;;;6.33;5.17;;;;;;;7.59;77.03;99824.50;5062742;28;20197;-68
2022/01/17 09:28:59;;;;;;;4.67;3.87;;;;;;;7.75;74.90;99810.69;5062799;28;20204;-67
2022/01/17 09:31:26;;;;;;;13.13;6.83;;;;;;;7.91;75.65;99812.19;5066800;28;20208;-69
2022/01/17 09:33:53;;;;;;;9.10;7.10;;;;;;;8.16;72.59;99793.13;5064939;28;20201;-68
2022/01/17 09:36:23;;;;;;;6.73;5.80;;;;;;;8.29;71.59;99806.59;5063201;28;20215;-69
2022/01/17 09:38:51;;;;;;;9.63;8.10;;;;;;;8.36;71.45;99796.28;5065083;28;20281;-68
2022/01/17 09:41:18;;;;;;;7.23;6.17;;;;;;;8.37;72.74;99782.63;5066710;28;20224;-68
2022/01/17 09:43:45;;;;;;;6.00;5.50;;;;;;;8.46;73.93;99768.88;5062796;28;20204;-68
2022/01/17 09:46:12;;;;;;;5.00;4.47;;;;;;;8.62;71.63;99756.69;5064277;28;20588;-68
2022/01/17 09:48:46;;;;;;;8.90;4.57;;;;;;;8.59;71.24;99746.53;5069507;28;20207;-68
2022/01/17 09:51:19;;;;;;;5.33;4.50;;;;;;;8.76;70.30;99752.16;5064414;28;20564;-68
2022/01/17 09:53:47;;;;;;;5.17;4.60;;;;;;;8.87;70.25;99752.84;5067451;28;20200;-68
2022/01/17 09:56:15;;;;;;;5.27;4.33;;;;;;;8.88;71.59;99741.75;5064664;28;20250;-68
2022/01/17 09:58:42;;;;;;;4.23;3.83;;;;;;;8.88;70.31;99723.88;5056296;28;20231;-68
2022/01/17 10:01:10;;;;;;;9.87;4.13;;;;;;;9.03;69.15;99754.25;5059283;28;20557;-69
2022/01/17 10:03:38;;;;;;;3.93;3.70;;;;;;;9.04;69.84;99742.31;5060398;28;20196;-69
2022/01/17 10:06:05;;;;;;;6.50;4.00;;;;;;;9.19;67.92;99740.31;5066900;28;20292;-69
2022/01/17 10:08:32;;;;;;;4.33;4.00;;;;;;;9.39;66.09;99743.34;5061149;28;20675;-69
2022/01/17 10:11:01;;;;;;;3.53;3.33;;;;;;;9.53;67.27;99740.50;5059074;28;20205;-68
2022/01/17 10:13:31;;;;;;;3.73;3.47;;;;;;;9.57;67.05;99734.41;5067412;28;20231;-69
2022/01/17 10:16:05;;;;;;;3.50;3.30;;;;;;;9.63;66.83;99720.69;5065752;28;20204;-68
2022/01/17 10:18:45;;;;;;;3.50;3.30;;;;;;;9.59;66.29;99712.22;5065031;28;20576;-69
2022/01/17 10:21:27;;;;;;;2.97;2.73;;;;;;;9.77;63.68;99703.28;5066382;28;20219;-69
2022/01/17 10:27:03;;;;;;;2.93;2.63;;;;;;;9.88;64.16;99671.44;5061706;28;20204;-69
2022/01/17 10:35:14;;;;;;;3.93;2.80;;;;;;;10.25;58.66;99676.56;5059693;28;20215;-68
2022/01/17 10:37:41;;;;;;;4.37;2.60;;;;;;;10.18;59.33;99664.78;5060616;28;20592;-69
2022/01/17 10:40:15;;;;;;;2.60;2.47;;;;;;;10.39;58.53;99677.06;5057540;28;20610;-69
2022/01/17 10:42:46;;;;;;;3.60;3.37;;;;;;;10.29;60.40;99683.31;5062405;28;20577;-69
2022/01/17 10:45:17;;;;;;;4.97;4.43;;;;;;;10.31;60.26;99675.56;5064896;28;20664;-70
2022/01/17 10:47:45;;;;;;;3.37;3.17;;;;;;;10.23;60.33;99673.22;5056294;28;20653;-70
2022/01/17 10:50:15;;;;;;;4.53;4.23;;;;;;;10.26;61.20;99683.38;5051546;28;20687;-70
2022/01/17 10:52:43;;;;;;;4.37;4.07;;;;;;;10.26;61.44;99693.63;5063152;28;20200;-70
2022/01/17 10:55:14;;;;;;;4.93;3.47;;;;;;;10.30;60.56;99690.13;5056166;28;20980;-69
2022/01/17 10:57:45;;;;;;;4.27;3.83;;;;;;;10.19;61.93;99699.78;5056361;28;20219;-70
2022/01/17 11:00:17;;;;;;;3.73;3.43;;;;;;;10.23;62.39;99698.81;5059437;28;20580;-69
2022/01/17 11:02:47;;;;;;;3.47;3.27;;;;;;;10.22;59.31;99681.75;5066571;28;20204;-67
2022/01/17 11:05:14;;;;;;;9.40;3.77;;;;;;;10.31;60.38;99696.06;5056352;28;20204;-67
2022/01/17 11:07:44;;;;;;;6.27;3.30;;;;;;;10.25;59.81;99685.97;5064497;28;20200;-68
2022/01/17 11:10:23;;;;;;;8.60;3.97;;;;;;;10.32;59.56;99688.34;5061319;28;20212;-67
2022/01/17 11:12:52;;;;;;;52.83;6.80;;;;;;;10.32;57.37;99690.91;5062241;28;20735;-68
2022/01/17 11:15:21;;;;;;;10.07;5.97;;;;;;;10.30;59.72;99669.63;5060667;28;20584;-66
2022/01/17 11:17:51;;;;;;;9.23;3.63;;;;;;;10.30;58.48;99664.50;5059890;28;20212;-67
2022/01/17 11:20:21;;;;;;;4.10;3.10;;;;;;;10.30;60.04;99663.66;5056783;28;20228;-68
2022/01/17 11:22:50;;;;;;;3.27;3.07;;;;;;;10.48;60.81;99658.91;5059291;28;20200;-68
2022/01/17 11:25:20;;;;;;;7.57;7.07;;;;;;;10.46;60.57;99652.97;5062059;28;20263;-64
2022/01/17 11:27:47;;;;;;;11.60;3.47;;;;;;;10.49;58.87;99665.72;5064431;28;20201;-68
2022/01/17 11:30:16;;;;;;;3.23;2.93;;;;;;;10.46;58.93;99670.91;5061338;28;20208;-68
2022/01/17 11:32:45;;;;;;;2.63;2.43;;;;;;;10.43;60.37;99671.00;5062294;28;20580;-68
2022/01/17 11:35:14;;;;;;;3.27;2.97;;;;;;;10.44;61.05;99677.78;5056568;28;20201;-68
2022/01/17 11:37:50;;;;;;;120.70;59.77;;;;;;;10.36;62.31;99679.72;5068620;28;20216;-67
2022/01/17 11:40:22;;;;;;;12.13;10.60;;;;;;;10.37;60.96;99681.38;5068363;28;20200;-66
2022/01/17 11:42:51;;;;;;;4.10;3.70;;;;;;;10.29;61.82;99692.69;5054018;28;20659;-68
2022/01/17 11:45:37;;;;;;;3.70;3.40;;;;;;;10.31;61.55;99686.66;5055847;28;20205;-67
2022/01/17 11:48:16;;;;;;;3.40;3.20;;;;;;;10.27;61.13;99673.97;5055995;28;20673;-68